createdAt,value
2022-12-11T00:00:17.263Z,99140.25
2022-12-11T00:04:18.801Z,99139.44
2022-12-11T00:08:18.293Z,99137.75
2022-12-11T00:12:17.903Z,99132.16
2022-12-11T00:16:19.531Z,99129.91
2022-12-11T00:20:24.423Z,99119.38
2022-12-11T00:24:23.975Z,99094.56
2022-12-11T00:28:23.576Z,99081.47
2022-12-11T00:32:22.564Z,99087.06
2022-12-11T00:36:26.708Z,99079.88
2022-12-11T00:40:26.180Z,99041.06
2022-12-11T00:44:25.676Z,99058.09
2022-12-11T00:48:25.205Z,99038.88
2022-12-11T00:52:26.842Z,99049.09
2022-12-11T00:56:26.416Z,99053.28
2022-12-11T01:00:26.829Z,99044.38
2022-12-11T01:04:26.458Z,99039.19
2022-12-11T01:08:28.281Z,99017.03
2022-12-11T01:12:28.235Z,98987.97
2022-12-11T01:16:27.950Z,99004.56
2022-12-11T01:20:29.374Z,99013.69
2022-12-11T01:24:30.995Z,99003.09
2022-12-11T01:28:30.570Z,99004.69
2022-12-11T01:32:30.764Z,99003.09
2022-12-11T01:36:30.308Z,98983.03
2022-12-11T01:40:32.427Z,98978.59
2022-12-11T01:45:09.297Z,98967.97
2022-12-11T01:49:13.021Z,98964.69
2022-12-11T01:53:16.084Z,98953.69
2022-12-11T01:57:18.367Z,98942.41
2022-12-11T02:01:24.703Z,98881.19
2022-12-11T02:05:24.328Z,98914.25
2022-12-11T02:09:27.304Z,98899.78
2022-12-11T02:13:36.870Z,98889.50
2022-12-11T02:17:42.819Z,98856.44
2022-12-11T02:21:45.682Z,98875.84
2022-12-11T02:25:54.350Z,98854.06
2022-12-11T02:30:03.118Z,98865.88
2022-12-11T02:34:06.957Z,98843.94
2022-12-11T02:38:10.648Z,98843.16
2022-12-11T02:42:11.830Z,98851.28
2022-12-11T02:46:14.371Z,98845.97
2022-12-11T02:50:19.047Z,98825.56
2022-12-11T02:54:22.458Z,98823.44
2022-12-11T02:58:24.828Z,98797.78
2022-12-11T03:02:26.654Z,98798.19
2022-12-11T03:06:31.269Z,98791.78
2022-12-11T03:10:30.763Z,98791.84
2022-12-11T03:14:30.310Z,98787.00
2022-12-11T03:18:37.053Z,98782.97
2022-12-11T03:22:42.584Z,98788.31
2022-12-11T03:26:46.230Z,98782.84
2022-12-11T03:30:47.252Z,98791.44
2022-12-11T03:34:58.482Z,98748.72
2022-12-11T03:39:00.545Z,98755.00
2022-12-11T03:43:00.574Z,98778.53
2022-12-11T03:47:02.098Z,98775.97
2022-12-11T03:51:06.941Z,98769.97
2022-12-11T03:55:08.890Z,98757.25
2022-12-11T03:59:08.587Z,98770.13
2022-12-11T04:03:17.577Z,98761.41
2022-12-11T04:07:19.136Z,98760.56
2022-12-11T04:11:36.510Z,98759.25
2022-12-11T04:15:36.158Z,98741.50
2022-12-11T04:19:52.259Z,98758.44
2022-12-11T04:24:09.990Z,98747.75
2022-12-11T04:28:09.661Z,98720.88
2022-12-11T04:32:09.093Z,98735.28
2022-12-11T04:36:09.639Z,98757.63
2022-12-11T04:40:15.189Z,98735.47
2022-12-11T04:44:16.811Z,98747.41
2022-12-11T04:48:16.280Z,98748.69
2022-12-11T04:52:15.863Z,98760.56
2022-12-11T04:56:18.486Z,98731.97
2022-12-11T05:00:19.289Z,98775.81
2022-12-11T05:04:18.771Z,98782.56
2022-12-11T05:08:18.833Z,98767.66
2022-12-11T05:12:20.561Z,98777.34
2022-12-11T05:16:20.177Z,98774.19
2022-12-11T05:20:19.822Z,98797.44
2022-12-11T05:24:19.390Z,98795.81
2022-12-11T05:28:20.976Z,98770.69
2022-12-11T05:32:20.728Z,98788.03
2022-12-11T05:36:22.926Z,98771.47
2022-12-11T05:40:22.377Z,98797.16
2022-12-11T05:44:24.339Z,98804.31
2022-12-11T05:48:23.888Z,98821.25
2022-12-11T05:52:23.471Z,98812.19
2022-12-11T05:56:26.023Z,98831.91
2022-12-11T06:00:31.538Z,98815.06
2022-12-11T06:04:33.963Z,98832.16
2022-12-11T06:08:33.539Z,98839.66
2022-12-11T06:12:33.377Z,98851.00
2022-12-11T06:16:35.127Z,98829.81
2022-12-11T06:20:35.281Z,98872.94
2022-12-11T06:24:34.712Z,98873.84
2022-12-11T06:28:34.152Z,98887.44
2022-12-11T06:32:35.783Z,98894.53
2022-12-11T06:36:35.362Z,98907.00
2022-12-11T06:40:34.856Z,98907.38
2022-12-11T06:44:34.382Z,98883.53
2022-12-11T06:48:36.466Z,98937.25
2022-12-11T06:52:36.956Z,98922.72
2022-12-11T06:56:37.423Z,98938.25
2022-12-11T07:00:37.509Z,98934.63
2022-12-11T07:04:38.682Z,98956.47
2022-12-11T07:08:38.290Z,98943.97
2022-12-11T07:12:38.142Z,98968.75
2022-12-11T07:16:39.819Z,98980.53
2022-12-11T07:20:41.025Z,98976.19
2022-12-11T07:24:40.565Z,98952.44
2022-12-11T07:28:40.051Z,98990.06
2022-12-11T07:32:38.719Z,99006.69
2022-12-11T07:36:40.297Z,99011.97
2022-12-11T07:40:39.816Z,99015.78
2022-12-11T07:44:39.359Z,99012.56
2022-12-11T07:48:39.948Z,99031.63
2022-12-11T07:52:41.752Z,99006.22
2022-12-11T07:56:43.866Z,99021.78
2022-12-11T08:00:43.255Z,99017.50
2022-12-11T08:04:43.054Z,98985.38
2022-12-11T08:08:45.247Z,99017.00
2022-12-11T08:12:44.886Z,99016.72
2022-12-11T08:16:44.726Z,99032.09
2022-12-11T08:20:44.345Z,99008.38
2022-12-11T08:24:46.318Z,99027.47
2022-12-11T08:28:46.082Z,99015.41
2022-12-11T08:32:45.573Z,99005.38
2022-12-11T08:36:46.586Z,99034.50
2022-12-11T08:40:48.320Z,99041.22
2022-12-11T08:44:47.863Z,99047.06
2022-12-11T08:48:47.691Z,99050.28
2022-12-11T08:52:47.488Z,99046.31
2022-12-11T08:56:51.310Z,99067.00
2022-12-11T09:00:53.295Z,99064.34
2022-12-11T09:04:52.600Z,99008.88
2022-12-11T09:08:56.062Z,99070.63
2022-12-11T09:12:57.306Z,99067.81
2022-12-11T09:16:56.888Z,99056.94
2022-12-11T09:21:03.123Z,99080.13
2022-12-11T09:25:02.699Z,99067.47
2022-12-11T09:29:05.238Z,99071.75
2022-12-11T09:33:04.787Z,99057.91
2022-12-11T09:37:04.338Z,99026.31
2022-12-11T09:41:04.465Z,99068.88
2022-12-11T09:45:07.262Z,99047.66
2022-12-11T09:49:16.352Z,99068.81
2022-12-11T09:53:20.527Z,99064.94
2022-12-11T09:57:34.237Z,99049.25
2022-12-11T10:01:44.156Z,99063.34
2022-12-11T10:05:51.070Z,99077.03
2022-12-11T10:09:58.524Z,99065.03
2022-12-11T10:14:08.684Z,99088.81
2022-12-11T10:18:16.808Z,99108.66
2022-12-11T10:22:23.025Z,99097.78
2022-12-11T10:26:23.828Z,99064.88
2022-12-11T10:30:30.401Z,99058.13
2022-12-11T10:34:37.243Z,99083.22
2022-12-11T10:38:42.431Z,99082.34
2022-12-11T10:42:45.607Z,99080.06
2022-12-11T10:46:46.320Z,99080.03
2022-12-11T10:50:59.136Z,99088.31
2022-12-11T10:55:02.090Z,99070.81
2022-12-11T10:59:03.209Z,99070.72
2022-12-11T11:03:04.273Z,99089.16
2022-12-11T11:07:14.524Z,99078.13
2022-12-11T11:11:28.825Z,99104.06
2022-12-11T11:15:30.299Z,99085.66
2022-12-11T11:19:36.950Z,99118.78
2022-12-11T11:23:46.321Z,99107.31
2022-12-11T11:27:53.657Z,99093.22
2022-12-11T11:31:53.423Z,99039.22
2022-12-11T11:35:56.459Z,99120.56
2022-12-11T11:40:04.963Z,99127.78
2022-12-11T11:44:08.950Z,99129.41
2022-12-11T11:54:13.071Z,99134.72
2022-12-11T11:58:36.317Z,99120.44
2022-12-11T12:02:35.786Z,99109.56
2022-12-11T12:07:02.708Z,99106.03
2022-12-11T12:11:13.413Z,99117.09
2022-12-11T12:15:47.641Z,99110.56
2022-12-11T12:19:58.217Z,99085.94
2022-12-11T12:25:10.059Z,99112.16
2022-12-11T12:29:30.908Z,99121.59
2022-12-11T12:33:47.387Z,99131.59
2022-12-11T12:37:59.122Z,99128.50
2022-12-11T12:42:08.195Z,99131.00
2022-12-11T12:46:21.906Z,99102.91
2022-12-11T12:50:27.168Z,99148.50
2022-12-11T12:54:39.156Z,99151.75
2022-12-11T12:58:48.442Z,99147.75
2022-12-11T13:03:03.733Z,99153.97
2022-12-11T13:07:25.511Z,99180.03
2022-12-11T13:11:36.246Z,99186.88
2022-12-11T13:15:43.514Z,99135.13
2022-12-11T13:19:47.929Z,99162.59
2022-12-11T13:23:51.487Z,99183.06
2022-12-11T13:27:51.967Z,99196.19
2022-12-11T13:32:00.915Z,99168.91
2022-12-11T13:36:30.886Z,99202.88
2022-12-11T13:40:40.090Z,99200.66
2022-12-11T13:44:43.886Z,99217.72
2022-12-11T13:48:49.704Z,99227.00
2022-12-11T13:52:56.100Z,99205.22
2022-12-11T13:57:17.679Z,99225.06
2022-12-11T14:01:23.293Z,99225.47
2022-12-11T14:05:27.365Z,99227.81
2022-12-11T14:09:29.662Z,99234.19
2022-12-11T14:13:41.666Z,99273.28
2022-12-11T14:17:51.355Z,99282.41
2022-12-11T14:22:03.445Z,99293.50
2022-12-11T14:26:17.330Z,99287.13
2022-12-11T14:30:27.033Z,99323.94
2022-12-11T14:34:28.438Z,99283.50
2022-12-11T14:38:32.102Z,99338.06
2022-12-11T14:42:35.926Z,99315.88
2022-12-11T14:46:46.069Z,99329.78
2022-12-11T14:50:50.049Z,99345.69
2022-12-11T14:54:56.636Z,99345.00
2022-12-11T14:59:00.467Z,99356.59
2022-12-11T15:03:14.211Z,99345.59
2022-12-11T15:07:27.495Z,99365.53
2022-12-11T15:11:37.051Z,99291.22
2022-12-11T15:15:48.258Z,99372.63
2022-12-11T15:19:56.876Z,99371.91
2022-12-11T15:24:02.638Z,99374.66
2022-12-11T15:28:04.893Z,99359.94
2022-12-11T15:32:26.247Z,99330.47
2022-12-11T15:36:48.671Z,99353.91
2022-12-11T15:40:57.816Z,99377.25
2022-12-11T15:44:58.286Z,99307.41
2022-12-11T15:48:59.733Z,99340.41
2022-12-11T15:53:27.161Z,99385.47
2022-12-11T15:57:34.092Z,99405.38
2022-12-11T16:01:34.213Z,99357.75
2022-12-11T16:05:33.969Z,99402.81
2022-12-11T16:09:45.999Z,99401.13
2022-12-11T16:13:46.142Z,99375.19
2022-12-11T16:17:49.370Z,99423.78
2022-12-11T16:21:49.734Z,99439.38
2022-12-11T16:25:52.258Z,99364.13
2022-12-11T16:29:51.979Z,99442.94
2022-12-11T16:33:52.552Z,99474.16
2022-12-11T16:37:56.694Z,99469.84
2022-12-11T16:42:06.595Z,99477.66
2022-12-11T16:46:14.857Z,99468.13
2022-12-11T16:50:17.645Z,99465.53
2022-12-11T16:54:23.627Z,99452.53
2022-12-11T16:58:35.270Z,99454.28
2022-12-11T17:07:33.154Z,99482.88
2022-12-11T17:11:34.597Z,99486.31
2022-12-11T17:15:46.057Z,99478.47
2022-12-11T17:20:13.884Z,99493.16
2022-12-11T17:24:18.437Z,99535.59
2022-12-11T17:28:18.599Z,99544.28
2022-12-11T17:32:24.863Z,99487.00
2022-12-11T17:36:27.349Z,99512.97
2022-12-11T17:40:27.625Z,99524.25
2022-12-11T17:44:30.058Z,99523.41
2022-12-11T17:48:32.342Z,99455.66
2022-12-11T17:52:44.005Z,99518.00
2022-12-11T17:56:44.824Z,99497.25
2022-12-11T18:00:57.985Z,99527.59
2022-12-11T18:05:03.623Z,99518.00
2022-12-11T18:09:03.207Z,99516.13
2022-12-11T18:13:07.846Z,99545.63
2022-12-11T18:17:57.406Z,99551.63
2022-12-11T18:22:25.022Z,99552.44
2022-12-11T18:26:34.165Z,99531.56
2022-12-11T18:30:43.510Z,99518.56
2022-12-11T18:34:49.209Z,99569.72
2022-12-11T18:38:52.101Z,99570.47
2022-12-11T18:43:20.211Z,99543.53
2022-12-11T18:47:25.495Z,99576.56
2022-12-11T18:51:27.003Z,99541.66
2022-12-11T18:55:34.129Z,99553.66
2022-12-11T18:59:34.968Z,99564.03
2022-12-11T19:03:34.521Z,99526.72
2022-12-11T19:07:34.423Z,99591.06
2022-12-11T19:11:41.045Z,99537.19
2022-12-11T19:15:42.215Z,99593.53
2022-12-11T19:19:42.856Z,99563.97
2022-12-11T19:23:43.228Z,99601.13
2022-12-11T19:27:49.770Z,99569.06
2022-12-11T19:31:49.871Z,99596.09
2022-12-11T19:35:49.760Z,99562.13
2022-12-11T19:39:49.728Z,99613.44
2022-12-11T19:43:53.143Z,99539.50
2022-12-11T19:47:54.379Z,99560.19
2022-12-11T19:51:54.120Z,99635.78
2022-12-11T19:55:55.108Z,99635.59
2022-12-11T19:59:57.506Z,99615.47
2022-12-11T20:03:59.811Z,99660.59
2022-12-11T20:08:27.360Z,99656.09
2022-12-11T20:12:20.079Z,99664.75
2022-12-11T20:16:39.214Z,99678.63
2022-12-11T20:20:41.977Z,99637.56
2022-12-11T20:24:41.649Z,99681.94
2022-12-11T20:28:41.707Z,99662.91
2022-12-11T20:32:45.729Z,99693.94
2022-12-11T20:36:45.691Z,99649.97
2022-12-11T20:40:48.010Z,99655.88
2022-12-11T20:44:49.375Z,99646.34
2022-12-11T20:48:51.635Z,99666.31
2022-12-11T20:52:54.049Z,99620.19
2022-12-11T20:56:59.473Z,99673.13
2022-12-11T21:00:59.261Z,99647.94
2022-12-11T21:05:01.210Z,99692.09
2022-12-11T21:09:00.677Z,99677.19
2022-12-11T21:13:00.364Z,99688.50
2022-12-11T21:16:59.978Z,99644.31
2022-12-11T21:21:01.989Z,99694.78
2022-12-11T21:25:01.821Z,99627.13
2022-12-11T21:29:01.643Z,99693.13
2022-12-11T21:33:02.636Z,99666.09
2022-12-11T21:37:04.471Z,99703.56
2022-12-11T21:41:10.177Z,99657.31
2022-12-11T21:49:29.988Z,99729.38
2022-12-11T21:53:31.668Z,99726.78
2022-12-11T21:57:30.975Z,99716.50
2022-12-11T22:01:34.536Z,99728.69
2022-12-11T22:05:34.350Z,99733.91
2022-12-11T22:09:36.079Z,99686.72
2022-12-11T22:13:35.825Z,99738.81
2022-12-11T22:17:36.727Z,99745.88
2022-12-11T22:21:36.330Z,99743.97
2022-12-11T22:25:37.741Z,99742.16
2022-12-11T22:29:37.389Z,99743.84
2022-12-11T22:33:36.534Z,99748.13
2022-12-11T22:37:35.834Z,99757.38
2022-12-11T22:41:41.726Z,99763.44
2022-12-11T22:45:42.135Z,99739.75
2022-12-11T22:49:42.278Z,99760.81
2022-12-11T22:53:41.567Z,99761.38
2022-12-11T22:57:43.273Z,99765.03
2022-12-11T23:01:43.027Z,99728.25
2022-12-11T23:05:42.928Z,99742.34
2022-12-11T23:09:42.599Z,99766.72
2022-12-11T23:13:44.398Z,99750.91
2022-12-11T23:17:44.089Z,99769.41
2022-12-11T23:21:43.546Z,99768.50
2022-12-11T23:25:43.703Z,99778.72
2022-12-11T23:29:45.406Z,99714.47
2022-12-11T23:33:47.740Z,99774.41
2022-12-11T23:37:47.316Z,99750.97
2022-12-11T23:41:47.595Z,99768.00
2022-12-11T23:45:50.233Z,99749.66
2022-12-11T23:49:49.809Z,99787.88
2022-12-11T23:53:51.712Z,99797.28
2022-12-11T23:57:51.245Z,99808.41
